sensor_id;sensor_type;location;lat;lon;timestamp;pressure;altitude;pressure_sealevel;temperature;humidity
4576;BME280;2300;51.874;8.430;2023-03-12T00:00:09;100476.16;;;-1.66;89.83
4576;BME280;2300;51.874;8.430;2023-03-12T00:02:36;100486.25;;;-1.60;89.59
4576;BME280;2300;51.874;8.430;2023-03-12T00:05:02;100479.34;;;-1.62;89.25
4576;BME280;2300;51.874;8.430;2023-03-12T00:07:29;100478.34;;;-1.61;89.11
4576;BME280;2300;51.874;8.430;2023-03-12T00:09:56;100489.69;;;-1.50;89.01
4576;BME280;2300;51.874;8.430;2023-03-12T00:12:22;100484.47;;;-1.51;88.77
4576;BME280;2300;51.874;8.430;2023-03-12T00:14:49;100471.16;;;-1.53;88.73
4576;BME280;2300;51.874;8.430;2023-03-12T00:17:17;100483.84;;;-1.45;88.34
4576;BME280;2300;51.874;8.430;2023-03-12T00:19:43;100480.44;;;-1.47;88.42
4576;BME280;2300;51.874;8.430;2023-03-12T00:22:10;100484.28;;;-1.50;89.13
4576;BME280;2300;51.874;8.430;2023-03-12T00:24:36;100477.06;;;-1.49;89.84
4576;BME280;2300;51.874;8.430;2023-03-12T00:27:03;100480.13;;;-1.44;90.00
4576;BME280;2300;51.874;8.430;2023-03-12T00:29:29;100472.22;;;-1.45;90.50
4576;BME280;2300;51.874;8.430;2023-03-12T00:31:56;100471.91;;;-1.34;90.12
4576;BME280;2300;51.874;8.430;2023-03-12T00:34:24;100468.69;;;-1.46;89.75
4576;BME280;2300;51.874;8.430;2023-03-12T00:36:50;100479.34;;;-1.36;90.10
4576;BME280;2300;51.874;8.430;2023-03-12T00:39:17;100480.69;;;-1.32;89.88
4576;BME280;2300;51.874;8.430;2023-03-12T00:41:43;100475.16;;;-1.31;89.96
4576;BME280;2300;51.874;8.430;2023-03-12T00:44:10;100471.97;;;-1.26;89.30
4576;BME280;2300;51.874;8.430;2023-03-12T00:46:36;100474.50;;;-1.25;89.24
4576;BME280;2300;51.874;8.430;2023-03-12T00:49:02;100476.00;;;-1.30;89.43
4576;BME280;2300;51.874;8.430;2023-03-12T00:51:30;100469.91;;;-1.32;89.61
4576;BME280;2300;51.874;8.430;2023-03-12T00:53:57;100469.78;;;-1.23;89.61
4576;BME280;2300;51.874;8.430;2023-03-12T00:56:23;100463.06;;;-1.19;88.90
4576;BME280;2300;51.874;8.430;2023-03-12T00:58:50;100466.78;;;-1.20;88.65
4576;BME280;2300;51.874;8.430;2023-03-12T01:01:16;100464.59;;;-1.24;88.91
4576;BME280;2300;51.874;8.430;2023-03-12T01:03:44;100450.41;;;-1.26;89.05
4576;BME280;2300;51.874;8.430;2023-03-12T01:06:10;100452.09;;;-1.25;89.15
4576;BME280;2300;51.874;8.430;2023-03-12T01:08:38;100447.38;;;-1.23;88.80
4576;BME280;2300;51.874;8.430;2023-03-12T01:11:05;100446.03;;;-1.27;89.63
4576;BME280;2300;51.874;8.430;2023-03-12T01:13:31;100446.72;;;-1.25;89.41
4576;BME280;2300;51.874;8.430;2023-03-12T01:15:58;100444.81;;;-1.33;89.25
4576;BME280;2300;51.874;8.430;2023-03-12T01:18:24;100438.59;;;-1.33;89.59
4576;BME280;2300;51.874;8.430;2023-03-12T01:20:52;100438.94;;;-1.28;89.43
4576;BME280;2300;51.874;8.430;2023-03-12T01:23:18;100428.34;;;-1.30;88.92
4576;BME280;2300;51.874;8.430;2023-03-12T01:25:46;100431.53;;;-1.26;88.29
4576;BME280;2300;51.874;8.430;2023-03-12T01:28:13;100431.06;;;-1.22;88.13
4576;BME280;2300;51.874;8.430;2023-03-12T01:30:40;100432.03;;;-1.31;88.23
4576;BME280;2300;51.874;8.430;2023-03-12T01:33:06;100425.81;;;-1.31;88.39
4576;BME280;2300;51.874;8.430;2023-03-12T01:35:35;100421.06;;;-1.29;88.13
4576;BME280;2300;51.874;8.430;2023-03-12T01:38:01;100414.31;;;-1.41;88.34
4576;BME280;2300;51.874;8.430;2023-03-12T01:40:28;100418.34;;;-1.45;88.73
4576;BME280;2300;51.874;8.430;2023-03-12T01:42:57;100417.50;;;-1.46;89.06
4576;BME280;2300;51.874;8.430;2023-03-12T01:45:59;100407.84;;;-1.57;89.25
4576;BME280;2300;51.874;8.430;2023-03-12T01:48:30;100415.94;;;-1.57;89.28
4576;BME280;2300;51.874;8.430;2023-03-12T01:50:58;100416.94;;;-1.58;89.85
4576;BME280;2300;51.874;8.430;2023-03-12T01:53:25;100413.72;;;-1.61;89.64
4576;BME280;2300;51.874;8.430;2023-03-12T01:55:51;100412.03;;;-1.62;89.81
4576;BME280;2300;51.874;8.430;2023-03-12T01:58:19;100408.50;;;-1.63;89.55
4576;BME280;2300;51.874;8.430;2023-03-12T02:00:46;100400.41;;;-1.63;89.97
4576;BME280;2300;51.874;8.430;2023-03-12T02:03:13;100407.66;;;-1.55;90.03
4576;BME280;2300;51.874;8.430;2023-03-12T02:05:44;100400.91;;;-1.59;89.69
4576;BME280;2300;51.874;8.430;2023-03-12T02:08:14;100385.41;;;-1.65;89.92
4576;BME280;2300;51.874;8.430;2023-03-12T02:10:41;100408.56;;;-1.46;89.49
4576;BME280;2300;51.874;8.430;2023-03-12T02:13:07;100408.94;;;-1.41;89.12
4576;BME280;2300;51.874;8.430;2023-03-12T02:15:37;100375.69;;;-1.58;88.55
4576;BME280;2300;51.874;8.430;2023-03-12T02:18:04;100403.88;;;-1.36;88.94
4576;BME280;2300;51.874;8.430;2023-03-12T02:20:38;100395.81;;;-1.36;89.22
4576;BME280;2300;51.874;8.430;2023-03-12T02:23:09;100402.56;;;-1.32;88.68
4576;BME280;2300;51.874;8.430;2023-03-12T02:25:41;100397.88;;;-1.22;88.35
4576;BME280;2300;51.874;8.430;2023-03-12T02:28:12;100394.38;;;-1.15;88.31
4576;BME280;2300;51.874;8.430;2023-03-12T02:30:41;100385.78;;;-1.10;87.69
4576;BME280;2300;51.874;8.430;2023-03-12T02:33:09;100389.84;;;-1.14;87.87
4576;BME280;2300;51.874;8.430;2023-03-12T02:35:36;100389.28;;;-1.18;87.50
4576;BME280;2300;51.874;8.430;2023-03-12T02:38:32;100394.88;;;-1.11;87.44
4576;BME280;2300;51.874;8.430;2023-03-12T02:41:01;100384.09;;;-1.11;87.47
4576;BME280;2300;51.874;8.430;2023-03-12T02:43:29;100389.13;;;-1.16;87.29
4576;BME280;2300;51.874;8.430;2023-03-12T02:45:55;100387.28;;;-1.16;87.64
4576;BME280;2300;51.874;8.430;2023-03-12T02:48:22;100384.59;;;-1.16;87.84
4576;BME280;2300;51.874;8.430;2023-03-12T02:50:48;100387.94;;;-1.14;87.24
4576;BME280;2300;51.874;8.430;2023-03-12T02:53:15;100383.59;;;-1.15;87.53
4576;BME280;2300;51.874;8.430;2023-03-12T02:55:41;100385.75;;;-1.18;87.58
4576;BME280;2300;51.874;8.430;2023-03-12T02:58:09;100381.06;;;-1.16;87.69
4576;BME280;2300;51.874;8.430;2023-03-12T03:00:35;100376.00;;;-1.19;87.73
4576;BME280;2300;51.874;8.430;2023-03-12T03:03:02;100374.97;;;-1.26;88.11
4576;BME280;2300;51.874;8.430;2023-03-12T03:05:28;100377.00;;;-1.12;87.95
4576;BME280;2300;51.874;8.430;2023-03-12T03:07:55;100372.63;;;-1.13;87.91
4576;BME280;2300;51.874;8.430;2023-03-12T03:10:21;100369.06;;;-1.22;87.71
4576;BME280;2300;51.874;8.430;2023-03-12T03:12:48;100369.59;;;-1.18;88.00
4576;BME280;2300;51.874;8.430;2023-03-12T03:15:17;100384.44;;;-1.14;88.19
4576;BME280;2300;51.874;8.430;2023-03-12T03:17:43;100377.66;;;-1.18;88.02
4576;BME280;2300;51.874;8.430;2023-03-12T03:20:10;100365.88;;;-1.25;87.79
4576;BME280;2300;51.874;8.430;2023-03-12T03:22:37;100365.88;;;-1.25;87.98
4576;BME280;2300;51.874;8.430;2023-03-12T03:25:04;100365.69;;;-1.24;88.07
4576;BME280;2300;51.874;8.430;2023-03-12T03:27:31;100372.28;;;-1.26;88.15
4576;BME280;2300;51.874;8.430;2023-03-12T03:29:58;100366.53;;;-1.23;88.58
4576;BME280;2300;51.874;8.430;2023-03-12T03:32:26;100367.38;;;-1.31;88.64
4576;BME280;2300;51.874;8.430;2023-03-12T03:34:52;100365.69;;;-1.32;88.56
4576;BME280;2300;51.874;8.430;2023-03-12T03:37:19;100358.41;;;-1.39;88.62
4576;BME280;2300;51.874;8.430;2023-03-12T03:39:45;100342.22;;;-1.39;88.29
4576;BME280;2300;51.874;8.430;2023-03-12T03:42:12;100356.75;;;-1.32;87.95
4576;BME280;2300;51.874;8.430;2023-03-12T03:44:38;100344.63;;;-1.28;87.81
4576;BME280;2300;51.874;8.430;2023-03-12T03:47:05;100344.97;;;-1.31;87.64
4576;BME280;2300;51.874;8.430;2023-03-12T03:49:33;100348.00;;;-1.26;87.53
4576;BME280;2300;51.874;8.430;2023-03-12T03:51:59;100354.09;;;-1.24;87.67
4576;BME280;2300;51.874;8.430;2023-03-12T03:54:25;100355.41;;;-1.28;87.94
4576;BME280;2300;51.874;8.430;2023-03-12T03:56:53;100358.28;;;-1.30;88.28
4576;BME280;2300;51.874;8.430;2023-03-12T03:59:20;100348.66;;;-1.32;87.92
4576;BME280;2300;51.874;8.430;2023-03-12T04:01:46;100352.06;;;-1.30;88.25
4576;BME280;2300;51.874;8.430;2023-03-12T04:04:13;100343.28;;;-1.32;88.34
4576;BME280;2300;51.874;8.430;2023-03-12T04:06:41;100339.75;;;-1.33;87.92
4576;BME280;2300;51.874;8.430;2023-03-12T04:09:07;100326.41;;;-1.42;87.96
4576;BME280;2300;51.874;8.430;2023-03-12T04:11:34;100324.06;;;-1.45;87.76
4576;BME280;2300;51.874;8.430;2023-03-12T04:14:01;100324.72;;;-1.43;88.29
4576;BME280;2300;51.874;8.430;2023-03-12T04:16:27;100326.06;;;-1.39;88.11
4576;BME280;2300;51.874;8.430;2023-03-12T04:18:54;100320.53;;;-1.38;87.57
4576;BME280;2300;51.874;8.430;2023-03-12T04:21:20;100325.63;;;-1.27;87.81
4576;BME280;2300;51.874;8.430;2023-03-12T04:23:48;100324.13;;;-1.21;87.67
4576;BME280;2300;51.874;8.430;2023-03-12T04:26:14;100329.66;;;-1.23;87.99
4576;BME280;2300;51.874;8.430;2023-03-12T04:28:41;100336.25;;;-1.17;87.13
4576;BME280;2300;51.874;8.430;2023-03-12T04:31:09;100321.75;;;-1.24;86.82
4576;BME280;2300;51.874;8.430;2023-03-12T04:33:38;100323.47;;;-1.15;86.81
4576;BME280;2300;51.874;8.430;2023-03-12T04:36:06;100325.66;;;-1.11;86.84
4576;BME280;2300;51.874;8.430;2023-03-12T04:38:32;100316.22;;;-1.07;86.37
4576;BME280;2300;51.874;8.430;2023-03-12T04:41:01;100316.41;;;-1.00;86.30
4576;BME280;2300;51.874;8.430;2023-03-12T04:43:29;100315.56;;;-1.00;86.45
4576;BME280;2300;51.874;8.430;2023-03-12T04:45:56;100305.28;;;-0.97;86.16
4576;BME280;2300;51.874;8.430;2023-03-12T04:48:24;100306.94;;;-0.88;86.06
4576;BME280;2300;51.874;8.430;2023-03-12T04:50:51;100283.38;;;-1.02;85.97
4576;BME280;2300;51.874;8.430;2023-03-12T04:53:18;100292.13;;;-0.92;86.12
4576;BME280;2300;51.874;8.430;2023-03-12T04:55:44;100292.31;;;-0.85;85.95
4576;BME280;2300;51.874;8.430;2023-03-12T04:58:12;100290.78;;;-0.80;85.91
4576;BME280;2300;51.874;8.430;2023-03-12T05:00:39;100289.09;;;-0.81;85.92
4576;BME280;2300;51.874;8.430;2023-03-12T05:03:05;100286.09;;;-0.78;85.89
4576;BME280;2300;51.874;8.430;2023-03-12T05:05:32;100294.84;;;-0.68;86.13
4576;BME280;2300;51.874;8.430;2023-03-12T05:07:59;100290.44;;;-0.77;85.51
4576;BME280;2300;51.874;8.430;2023-03-12T05:10:26;100289.94;;;-0.72;84.97
4576;BME280;2300;51.874;8.430;2023-03-12T05:12:52;100291.81;;;-0.73;85.19
4576;BME280;2300;51.874;8.430;2023-03-12T05:15:20;100283.88;;;-0.74;84.89
4576;BME280;2300;51.874;8.430;2023-03-12T05:17:47;100277.28;;;-0.88;85.12
4576;BME280;2300;51.874;8.430;2023-03-12T05:20:13;100275.63;;;-0.81;85.09
4576;BME280;2300;51.874;8.430;2023-03-12T05:22:42;100271.91;;;-0.88;85.26
4576;BME280;2300;51.874;8.430;2023-03-12T05:25:09;100266.00;;;-0.91;85.12
4576;BME280;2300;51.874;8.430;2023-03-12T05:27:36;100265.38;;;-0.93;84.83
4576;BME280;2300;51.874;8.430;2023-03-12T05:30:05;100270.06;;;-0.95;84.98
4576;BME280;2300;51.874;8.430;2023-03-12T05:32:33;100273.94;;;-0.90;84.88
4576;BME280;2300;51.874;8.430;2023-03-12T05:34:59;100274.59;;;-0.88;84.74
4576;BME280;2300;51.874;8.430;2023-03-12T05:37:26;100263.81;;;-0.88;84.47
4576;BME280;2300;51.874;8.430;2023-03-12T05:39:52;100258.25;;;-0.86;84.04
4576;BME280;2300;51.874;8.430;2023-03-12T05:42:19;100248.00;;;-0.83;84.39
4576;BME280;2300;51.874;8.430;2023-03-12T05:44:45;100248.34;;;-0.78;84.41
4576;BME280;2300;51.874;8.430;2023-03-12T05:47:12;100247.28;;;-0.77;84.21
4576;BME280;2300;51.874;8.430;2023-03-12T05:49:40;100236.50;;;-0.77;84.27
4576;BME280;2300;51.874;8.430;2023-03-12T05:52:06;100230.59;;;-0.72;84.39
4576;BME280;2300;51.874;8.430;2023-03-12T05:54:33;100238.69;;;-0.72;84.24
4576;BME280;2300;51.874;8.430;2023-03-12T05:56:59;100229.09;;;-0.58;83.73
4576;BME280;2300;51.874;8.430;2023-03-12T05:59:27;100224.38;;;-0.65;83.69
4576;BME280;2300;51.874;8.430;2023-03-12T06:01:54;100217.63;;;-0.69;83.15
4576;BME280;2300;51.874;8.430;2023-03-12T06:04:21;100204.16;;;-0.69;83.34
4576;BME280;2300;51.874;8.430;2023-03-12T06:06:48;100214.91;;;-0.52;83.33
4576;BME280;2300;51.874;8.430;2023-03-12T06:09:15;100220.47;;;-0.54;83.62
4576;BME280;2300;51.874;8.430;2023-03-12T06:11:41;100206.78;;;-0.36;82.96
4576;BME280;2300;51.874;8.430;2023-03-12T06:14:08;100210.28;;;-0.28;82.29
4576;BME280;2300;51.874;8.430;2023-03-12T06:16:35;100212.44;;;-0.23;82.04
4576;BME280;2300;51.874;8.430;2023-03-12T06:19:02;100216.16;;;-0.16;82.24
4576;BME280;2300;51.874;8.430;2023-03-12T06:21:31;100201.59;;;-0.15;82.12
4576;BME280;2300;51.874;8.430;2023-03-12T06:24:00;100208.53;;;-0.12;81.84
4576;BME280;2300;51.874;8.430;2023-03-12T06:26:27;100203.91;;;0.04;81.42
4576;BME280;2300;51.874;8.430;2023-03-12T06:28:53;100202.69;;;0.07;81.22
4576;BME280;2300;51.874;8.430;2023-03-12T06:31:20;100184.19;;;-0.04;81.30
4576;BME280;2300;51.874;8.430;2023-03-12T06:33:47;100206.31;;;0.22;81.21
4576;BME280;2300;51.874;8.430;2023-03-12T06:36:14;100191.13;;;0.21;81.17
4576;BME280;2300;51.874;8.430;2023-03-12T06:38:40;100181.00;;;0.23;81.37
4576;BME280;2300;51.874;8.430;2023-03-12T06:41:10;100191.94;;;0.30;81.07
4576;BME280;2300;51.874;8.430;2023-03-12T06:43:38;100164.09;;;0.29;80.92
4576;BME280;2300;51.874;8.430;2023-03-12T06:46:07;100175.13;;;0.42;81.38
4576;BME280;2300;51.874;8.430;2023-03-12T06:48:34;100174.25;;;0.50;81.14
4576;BME280;2300;51.874;8.430;2023-03-12T06:51:01;100167.63;;;0.52;80.57
4576;BME280;2300;51.874;8.430;2023-03-12T06:53:29;100164.03;;;0.60;80.40
4576;BME280;2300;51.874;8.430;2023-03-12T06:55:55;100162.09;;;0.69;80.05
4576;BME280;2300;51.874;8.430;2023-03-12T06:58:23;100166.81;;;0.89;79.53
4576;BME280;2300;51.874;8.430;2023-03-12T07:00:50;100172.78;;;1.22;79.79
4576;BME280;2300;51.874;8.430;2023-03-12T07:03:16;100157.41;;;1.23;79.05
4576;BME280;2300;51.874;8.430;2023-03-12T07:05:43;100168.41;;;1.36;78.77
4576;BME280;2300;51.874;8.430;2023-03-12T07:08:10;100168.31;;;1.59;78.26
4576;BME280;2300;51.874;8.430;2023-03-12T07:10:38;100178.59;;;1.63;77.31
4576;BME280;2300;51.874;8.430;2023-03-12T07:13:04;100164.47;;;1.82;77.18
4576;BME280;2300;51.874;8.430;2023-03-12T07:15:33;100167.66;;;1.71;76.66
4576;BME280;2300;51.874;8.430;2023-03-12T07:18:00;100165.81;;;1.86;76.98
4576;BME280;2300;51.874;8.430;2023-03-12T07:20:26;100162.44;;;1.84;76.75
4576;BME280;2300;51.874;8.430;2023-03-12T07:22:53;100165.31;;;1.83;76.75
4576;BME280;2300;51.874;8.430;2023-03-12T07:25:19;100175.69;;;1.79;76.22
4576;BME280;2300;51.874;8.430;2023-03-12T07:27:46;100176.69;;;1.93;75.88
4576;BME280;2300;51.874;8.430;2023-03-12T07:30:12;100173.53;;;1.89;76.82
4576;BME280;2300;51.874;8.430;2023-03-12T07:32:40;100177.44;;;1.87;76.49
4576;BME280;2300;51.874;8.430;2023-03-12T07:35:07;100167.09;;;1.90;77.00
4576;BME280;2300;51.874;8.430;2023-03-12T07:37:34;100163.78;;;2.10;76.39
4576;BME280;2300;51.874;8.430;2023-03-12T07:40:00;100165.84;;;2.08;76.18
4576;BME280;2300;51.874;8.430;2023-03-12T07:42:29;100169.69;;;1.99;76.38
4576;BME280;2300;51.874;8.430;2023-03-12T07:44:56;100170.63;;;2.06;76.24
4576;BME280;2300;51.874;8.430;2023-03-12T07:47:22;100166.72;;;1.93;75.97
4576;BME280;2300;51.874;8.430;2023-03-12T07:49:50;100154.66;;;1.96;75.75
4576;BME280;2300;51.874;8.430;2023-03-12T07:52:18;100148.41;;;1.96;76.06
4576;BME280;2300;51.874;8.430;2023-03-12T07:54:44;100141.31;;;1.95;76.29
4576;BME280;2300;51.874;8.430;2023-03-12T07:57:11;100134.38;;;2.07;76.39
4576;BME280;2300;51.874;8.430;2023-03-12T07:59:37;100127.03;;;2.22;77.05
4576;BME280;2300;51.874;8.430;2023-03-12T08:02:04;100129.78;;;2.43;76.06
4576;BME280;2300;51.874;8.430;2023-03-12T08:04:30;100125.56;;;2.41;76.12
4576;BME280;2300;51.874;8.430;2023-03-12T08:06:58;100125.97;;;2.59;76.03
4576;BME280;2300;51.874;8.430;2023-03-12T08:09:25;100122.00;;;2.61;75.13
4576;BME280;2300;51.874;8.430;2023-03-12T08:11:51;100120.41;;;2.67;75.87
4576;BME280;2300;51.874;8.430;2023-03-12T08:14:17;100117.47;;;2.90;75.72
4576;BME280;2300;51.874;8.430;2023-03-12T08:16:44;100081.38;;;2.89;74.70
4576;BME280;2300;51.874;8.430;2023-03-12T08:19:10;100113.41;;;3.35;74.14
4576;BME280;2300;51.874;8.430;2023-03-12T08:21:37;100116.72;;;3.30;74.68
4576;BME280;2300;51.874;8.430;2023-03-12T08:24:05;100116.97;;;3.07;73.79
4576;BME280;2300;51.874;8.430;2023-03-12T08:26:32;100115.09;;;3.08;73.67
4576;BME280;2300;51.874;8.430;2023-03-12T08:28:58;100101.94;;;3.05;73.99
4576;BME280;2300;51.874;8.430;2023-03-12T08:31:25;100101.97;;;3.11;73.79
4576;BME280;2300;51.874;8.430;2023-03-12T08:33:53;100106.25;;;3.27;74.64
4576;BME280;2300;51.874;8.430;2023-03-12T08:36:19;100108.41;;;3.38;74.21
4576;BME280;2300;51.874;8.430;2023-03-12T08:38:46;100099.66;;;3.43;73.85
4576;BME280;2300;51.874;8.430;2023-03-12T08:41:13;100103.13;;;3.64;74.08
4576;BME280;2300;51.874;8.430;2023-03-12T08:43:40;100095.66;;;3.73;73.20
4576;BME280;2300;51.874;8.430;2023-03-12T08:46:06;100100.31;;;3.92;72.60
4576;BME280;2300;51.874;8.430;2023-03-12T08:48:33;100103.22;;;3.91;73.03
4576;BME280;2300;51.874;8.430;2023-03-12T08:51:00;100109.31;;;3.93;72.48
4576;BME280;2300;51.874;8.430;2023-03-12T08:53:29;100096.69;;;3.72;72.29
4576;BME280;2300;51.874;8.430;2023-03-12T08:55:56;100105.41;;;3.61;71.78
4576;BME280;2300;51.874;8.430;2023-03-12T08:58:24;100111.03;;;3.59;71.10
4576;BME280;2300;51.874;8.430;2023-03-12T09:00:51;100115.19;;;3.55;72.83
4576;BME280;2300;51.874;8.430;2023-03-12T09:03:18;100116.31;;;3.68;72.63
4576;BME280;2300;51.874;8.430;2023-03-12T09:05:47;100106.00;;;3.56;73.06
4576;BME280;2300;51.874;8.430;2023-03-12T09:08:14;100107.22;;;3.47;72.13
4576;BME280;2300;51.874;8.430;2023-03-12T09:10:46;100110.00;;;3.60;72.48
4576;BME280;2300;51.874;8.430;2023-03-12T09:13:14;100106.00;;;3.56;73.44
4576;BME280;2300;51.874;8.430;2023-03-12T09:15:42;100105.97;;;3.50;74.00
4576;BME280;2300;51.874;8.430;2023-03-12T09:18:09;100105.69;;;3.38;75.00
4576;BME280;2300;51.874;8.430;2023-03-12T09:20:35;100111.47;;;3.29;76.43
4576;BME280;2300;51.874;8.430;2023-03-12T09:23:02;100102.25;;;3.23;77.08
4576;BME280;2300;51.874;8.430;2023-03-12T09:25:28;100103.03;;;3.10;78.49
4576;BME280;2300;51.874;8.430;2023-03-12T09:27:55;100102.97;;;3.04;79.47
4576;BME280;2300;51.874;8.430;2023-03-12T09:30:21;100104.91;;;3.10;80.71
4576;BME280;2300;51.874;8.430;2023-03-12T09:32:50;100106.59;;;3.11;81.14
4576;BME280;2300;51.874;8.430;2023-03-12T09:35:17;100098.22;;;3.12;81.97
4576;BME280;2300;51.874;8.430;2023-03-12T09:37:47;100100.63;;;3.01;82.99
4576;BME280;2300;51.874;8.430;2023-03-12T09:40:16;100100.84;;;2.99;83.98
4576;BME280;2300;51.874;8.430;2023-03-12T09:42:46;100114.09;;;2.88;84.75
4576;BME280;2300;51.874;8.430;2023-03-12T09:45:19;100095.13;;;2.88;86.14
4576;BME280;2300;51.874;8.430;2023-03-12T09:47:48;100085.72;;;2.84;87.10
4576;BME280;2300;51.874;8.430;2023-03-12T09:50:24;100080.44;;;2.54;88.27
4576;BME280;2300;51.874;8.430;2023-03-12T09:52:57;100078.69;;;2.68;89.01
4576;BME280;2300;51.874;8.430;2023-03-12T09:55:24;100079.91;;;2.65;89.74
4576;BME280;2300;51.874;8.430;2023-03-12T09:57:53;100078.09;;;2.72;90.78
4576;BME280;2300;51.874;8.430;2023-03-12T10:00:21;100073.19;;;2.83;90.81
4576;BME280;2300;51.874;8.430;2023-03-12T10:03:08;100073.44;;;2.88;90.84
4576;BME280;2300;51.874;8.430;2023-03-12T10:05:40;100061.72;;;2.59;91.79
4576;BME280;2300;51.874;8.430;2023-03-12T10:08:18;100069.31;;;2.70;91.84
4576;BME280;2300;51.874;8.430;2023-03-12T10:10:52;100058.50;;;2.49;92.22
4576;BME280;2300;51.874;8.430;2023-03-12T10:13:46;100062.72;;;2.30;92.30
4576;BME280;2300;51.874;8.430;2023-03-12T10:16:28;100053.63;;;2.17;93.54
4576;BME280;2300;51.874;8.430;2023-03-12T10:19:14;100038.66;;;2.21;94.10
4576;BME280;2300;51.874;8.430;2023-03-12T10:21:53;100041.19;;;2.22;95.04
4576;BME280;2300;51.874;8.430;2023-03-12T10:24:32;100033.41;;;2.41;95.86
4576;BME280;2300;51.874;8.430;2023-03-12T10:27:10;100030.09;;;2.66;96.18
4576;BME280;2300;51.874;8.430;2023-03-12T10:29:38;100022.75;;;2.88;95.92
4576;BME280;2300;51.874;8.430;2023-03-12T10:32:12;100034.56;;;2.81;95.93
4576;BME280;2300;51.874;8.430;2023-03-12T10:34:43;100032.94;;;2.86;95.48
4576;BME280;2300;51.874;8.430;2023-03-12T10:37:16;100039.59;;;2.84;95.67
4576;BME280;2300;51.874;8.430;2023-03-12T10:39:44;100037.44;;;2.72;95.93
4576;BME280;2300;51.874;8.430;2023-03-12T10:42:13;100033.19;;;2.63;96.71
4576;BME280;2300;51.874;8.430;2023-03-12T10:44:41;100045.56;;;2.72;97.70
4576;BME280;2300;51.874;8.430;2023-03-12T10:47:18;100045.41;;;2.81;97.69
4576;BME280;2300;51.874;8.430;2023-03-12T10:49:50;100044.53;;;2.73;98.49
4576;BME280;2300;51.874;8.430;2023-03-12T10:52:20;100047.19;;;2.95;98.65
4576;BME280;2300;51.874;8.430;2023-03-12T10:54:48;100041.53;;;2.90;98.76
4576;BME280;2300;51.874;8.430;2023-03-12T10:57:16;100040.28;;;2.92;99.31
4576;BME280;2300;51.874;8.430;2023-03-12T10:59:45;100027.16;;;2.96;99.30
4576;BME280;2300;51.874;8.430;2023-03-12T11:02:32;100037.03;;;3.03;99.09
4576;BME280;2300;51.874;8.430;2023-03-12T11:05:00;100040.94;;;2.94;98.78
4576;BME280;2300;51.874;8.430;2023-03-12T11:07:30;100012.88;;;2.81;98.99
4576;BME280;2300;51.874;8.430;2023-03-12T11:10:17;100042.31;;;2.84;99.97
4576;BME280;2300;51.874;8.430;2023-03-12T11:12:53;100034.44;;;2.89;100.00
4576;BME280;2300;51.874;8.430;2023-03-12T11:15:22;100027.25;;;2.81;100.00
4576;BME280;2300;51.874;8.430;2023-03-12T11:17:48;100017.50;;;2.87;100.00
4576;BME280;2300;51.874;8.430;2023-03-12T11:20:26;100021.34;;;2.99;100.00
4576;BME280;2300;51.874;8.430;2023-03-12T11:22:55;100017.38;;;3.01;100.00
4576;BME280;2300;51.874;8.430;2023-03-12T11:25:23;100008.13;;;3.24;100.00
4576;BME280;2300;51.874;8.430;2023-03-12T11:27:53;100011.00;;;3.15;100.00
4576;BME280;2300;51.874;8.430;2023-03-12T11:30:22;100010.56;;;3.12;100.00
4576;BME280;2300;51.874;8.430;2023-03-12T11:32:49;100015.66;;;3.28;100.00
4576;BME280;2300;51.874;8.430;2023-03-12T11:35:20;99996.75;;;3.00;100.00
4576;BME280;2300;51.874;8.430;2023-03-12T11:38:00;100002.72;;;3.30;100.00
4576;BME280;2300;51.874;8.430;2023-03-12T11:40:38;100011.09;;;3.35;100.00
4576;BME280;2300;51.874;8.430;2023-03-12T11:43:23;100002.84;;;3.09;100.00
4576;BME280;2300;51.874;8.430;2023-03-12T11:46:06;100019.38;;;3.20;100.00
4576;BME280;2300;51.874;8.430;2023-03-12T11:48:41;100014.19;;;3.32;100.00
4576;BME280;2300;51.874;8.430;2023-03-12T11:51:23;100018.13;;;3.23;100.00
4576;BME280;2300;51.874;8.430;2023-03-12T11:56:48;100013.66;;;3.50;100.00
4576;BME280;2300;51.874;8.430;2023-03-12T11:59:42;100005.72;;;3.48;100.00
4576;BME280;2300;51.874;8.430;2023-03-12T12:05:24;99990.06;;;3.50;100.00
4576;BME280;2300;51.874;8.430;2023-03-12T12:08:03;99985.66;;;3.43;100.00
4576;BME280;2300;51.874;8.430;2023-03-12T12:10:40;99990.53;;;3.60;100.00
4576;BME280;2300;51.874;8.430;2023-03-12T12:13:16;99964.00;;;3.69;100.00
4576;BME280;2300;51.874;8.430;2023-03-12T12:15:56;99970.13;;;3.78;100.00
4576;BME280;2300;51.874;8.430;2023-03-12T12:18:41;99968.25;;;3.98;100.00
4576;BME280;2300;51.874;8.430;2023-03-12T12:21:27;99969.31;;;4.10;100.00
4576;BME280;2300;51.874;8.430;2023-03-12T12:24:03;99965.34;;;4.06;100.00
4576;BME280;2300;51.874;8.430;2023-03-12T12:26:38;99977.66;;;4.15;100.00
4576;BME280;2300;51.874;8.430;2023-03-12T12:29:19;99958.66;;;4.09;100.00
4576;BME280;2300;51.874;8.430;2023-03-12T12:31:53;99955.53;;;4.18;100.00
4576;BME280;2300;51.874;8.430;2023-03-12T12:34:48;99961.19;;;4.30;100.00
4576;BME280;2300;51.874;8.430;2023-03-12T12:37:42;99950.31;;;4.30;100.00
4576;BME280;2300;51.874;8.430;2023-03-12T12:40:17;99965.78;;;4.23;100.00
4576;BME280;2300;51.874;8.430;2023-03-12T12:42:52;99961.59;;;4.33;100.00
4576;BME280;2300;51.874;8.430;2023-03-12T12:45:21;99940.94;;;4.45;100.00
4576;BME280;2300;51.874;8.430;2023-03-12T12:47:53;99943.22;;;4.48;100.00
4576;BME280;2300;51.874;8.430;2023-03-12T12:50:23;99943.63;;;4.65;100.00
4576;BME280;2300;51.874;8.430;2023-03-12T12:52:54;99938.56;;;4.75;100.00
4576;BME280;2300;51.874;8.430;2023-03-12T12:55:26;99935.16;;;4.93;100.00
4576;BME280;2300;51.874;8.430;2023-03-12T12:57:57;99952.31;;;5.00;100.00
4576;BME280;2300;51.874;8.430;2023-03-12T13:00:39;99938.44;;;5.08;100.00
4576;BME280;2300;51.874;8.430;2023-03-12T13:03:12;99934.69;;;5.09;100.00
4576;BME280;2300;51.874;8.430;2023-03-12T13:05:47;99937.19;;;5.17;100.00
4576;BME280;2300;51.874;8.430;2023-03-12T13:08:59;99926.84;;;5.32;100.00
4576;BME280;2300;51.874;8.430;2023-03-12T13:11:29;99933.44;;;5.50;100.00
4576;BME280;2300;51.874;8.430;2023-03-12T13:14:20;99924.78;;;5.66;100.00
4576;BME280;2300;51.874;8.430;2023-03-12T13:16:48;99911.69;;;5.81;100.00
4576;BME280;2300;51.874;8.430;2023-03-12T13:19:24;99914.50;;;5.99;100.00
4576;BME280;2300;51.874;8.430;2023-03-12T13:22:06;99915.31;;;6.06;100.00
4576;BME280;2300;51.874;8.430;2023-03-12T13:24:43;99922.34;;;6.14;100.00
4576;BME280;2300;51.874;8.430;2023-03-12T13:27:16;99914.06;;;6.27;100.00
4576;BME280;2300;51.874;8.430;2023-03-12T13:29:46;99910.31;;;6.46;100.00
4576;BME280;2300;51.874;8.430;2023-03-12T13:32:37;99916.28;;;6.37;100.00